sensor_id;sensor_type;location;lat;lon;timestamp;pressure;altitude;pressure_sealevel;temperature;humidity
57799;BME280;43626;53.866;30.298;2022-12-18T00:00:12;1023.7;;;-3.9;67
57799;BME280;43626;53.866;30.298;2022-12-18T00:05:10;1023.7;;;-3.9;67.1
57799;BME280;43626;53.866;30.298;2022-12-18T00:09:46;1023.7;;;-3.9;67.1
57799;BME280;43626;53.866;30.298;2022-12-18T00:14:26;1023.7;;;-4;67.2
57799;BME280;43626;53.866;30.298;2022-12-18T00:20:00;1023.8;;;-4;67.1
57799;BME280;43626;53.866;30.298;2022-12-18T00:25:12;1024;;;-4;67.2
57799;BME280;43626;53.866;30.298;2022-12-18T00:30:10;1024;;;-4.1;67.2
57799;BME280;43626;53.866;30.298;2022-12-18T00:34:57;1024;;;-4.1;67.2
57799;BME280;43626;53.866;30.298;2022-12-18T00:39:48;1024.1;;;-4.1;67.4
57799;BME280;43626;53.866;30.298;2022-12-18T00:44:48;1024.1;;;-4.1;67.7
57799;BME280;43626;53.866;30.298;2022-12-18T00:49:56;1024.2;;;-4.2;67.7
57799;BME280;43626;53.866;30.298;2022-12-18T00:55:10;1024.3;;;-4.2;68.1
57799;BME280;43626;53.866;30.298;2022-12-18T00:59:46;1024.3;;;-4.2;68.1
57799;BME280;43626;53.866;30.298;2022-12-18T01:04:44;1024.5;;;-4.2;67.7
57799;BME280;43626;53.866;30.298;2022-12-18T01:09:44;1024.5;;;-4.2;67.6
57799;BME280;43626;53.866;30.298;2022-12-18T01:14:58;1024.6;;;-4.3;67.5
57799;BME280;43626;53.866;30.298;2022-12-18T01:20:16;1024.7;;;-4.4;67.4
57799;BME280;43626;53.866;30.298;2022-12-18T01:25:00;1024.7;;;-4.4;67.4
57799;BME280;43626;53.866;30.298;2022-12-18T01:30:04;1024.7;;;-4.4;67.4
57799;BME280;43626;53.866;30.298;2022-12-18T01:34:26;1024.8;;;-4.5;67.5
57799;BME280;43626;53.866;30.298;2022-12-18T01:40:00;1024.8;;;-4.6;67.8
57799;BME280;43626;53.866;30.298;2022-12-18T01:45:28;1024.9;;;-4.6;67.6
57799;BME280;43626;53.866;30.298;2022-12-18T01:49:26;1024.9;;;-4.6;67.6
57799;BME280;43626;53.866;30.298;2022-12-18T01:54:40;1024.9;;;-4.6;67.6
57799;BME280;43626;53.866;30.298;2022-12-18T01:59:47;1025;;;-4.6;67.5
57799;BME280;43626;53.866;30.298;2022-12-18T02:05:15;1025.1;;;-4.6;67.6
57799;BME280;43626;53.866;30.298;2022-12-18T02:10:15;1025;;;-4.6;67.5
57799;BME280;43626;53.866;30.298;2022-12-18T02:15:04;1025;;;-4.6;67.5
57799;BME280;43626;53.866;30.298;2022-12-18T02:20:05;1025;;;-4.6;67.4
57799;BME280;43626;53.866;30.298;2022-12-18T02:24:39;1024.8;;;-4.6;67
57799;BME280;43626;53.866;30.298;2022-12-18T02:30:14;1024.9;;;-4.8;67.1
57799;BME280;43626;53.866;30.298;2022-12-18T02:35:15;1025;;;-4.9;67.3
57799;BME280;43626;53.866;30.298;2022-12-18T02:40:14;1025.2;;;-4.9;67.4
57799;BME280;43626;53.866;30.298;2022-12-18T02:44:49;1025.2;;;-4.9;67.4
57799;BME280;43626;53.866;30.298;2022-12-18T02:49:40;1025.3;;;-4.9;67.3
57799;BME280;43626;53.866;30.298;2022-12-18T02:55:18;1025.6;;;-4.8;67.3
57799;BME280;43626;53.866;30.298;2022-12-18T03:00:15;1025.7;;;-4.8;67.1
57799;BME280;43626;53.866;30.298;2022-12-18T03:05:15;1025.9;;;-4.8;67
57799;BME280;43626;53.866;30.298;2022-12-18T03:10:02;1025.9;;;-4.8;67
57799;BME280;43626;53.866;30.298;2022-12-18T03:14:52;1026;;;-4.8;66.9
57799;BME280;43626;53.866;30.298;2022-12-18T03:20:13;1026.3;;;-4.9;67
57799;BME280;43626;53.866;30.298;2022-12-18T03:25:13;1026.5;;;-4.9;66.7
57799;BME280;43626;53.866;30.298;2022-12-18T03:29:48;1026.5;;;-4.9;66.7
57799;BME280;43626;53.866;30.298;2022-12-18T03:34:49;1026.7;;;-4.9;66.5
57799;BME280;43626;53.866;30.298;2022-12-18T03:39:50;1026.7;;;-4.9;66.9
57799;BME280;43626;53.866;30.298;2022-12-18T03:45:13;1026.8;;;-4.8;67.3
57799;BME280;43626;53.866;30.298;2022-12-18T03:50:15;1026.9;;;-4.7;67
57799;BME280;43626;53.866;30.298;2022-12-18T03:55:00;1026.9;;;-4.7;67
57799;BME280;43626;53.866;30.298;2022-12-18T04:00:05;1027;;;-4.7;66.8
57799;BME280;43626;53.866;30.298;2022-12-18T04:04:38;1027.2;;;-4.6;66.7
57799;BME280;43626;53.866;30.298;2022-12-18T04:10:16;1027.2;;;-4.7;66.5
57799;BME280;43626;53.866;30.298;2022-12-18T04:15:02;1027.2;;;-4.7;66.5
57799;BME280;43626;53.866;30.298;2022-12-18T04:20:02;1027.4;;;-4.7;66.3
57799;BME280;43626;53.866;30.298;2022-12-18T04:24:50;1027.4;;;-4.8;66.3
57799;BME280;43626;53.866;30.298;2022-12-18T04:29:50;1027.4;;;-4.8;66.3
57799;BME280;43626;53.866;30.298;2022-12-18T04:35:16;1027.5;;;-4.9;65.7
57799;BME280;43626;53.866;30.298;2022-12-18T04:39:36;1027.5;;;-4.9;65.7
57799;BME280;43626;53.866;30.298;2022-12-18T04:45:00;1027.6;;;-4.9;65.8
57799;BME280;43626;53.866;30.298;2022-12-18T04:50:05;1027.7;;;-4.9;65.8
57799;BME280;43626;53.866;30.298;2022-12-18T04:54:26;1027.8;;;-4.9;66
57799;BME280;43626;53.866;30.298;2022-12-18T05:00:14;1027.8;;;-5;65.8
57799;BME280;43626;53.866;30.298;2022-12-18T05:04:28;1027.8;;;-5;65.8
57799;BME280;43626;53.866;30.298;2022-12-18T05:09:38;1027.9;;;-5;65.9
57799;BME280;43626;53.866;30.298;2022-12-18T05:14:50;1028;;;-5;65.9
57799;BME280;43626;53.866;30.298;2022-12-18T05:19:48;1028;;;-5;66
57799;BME280;43626;53.866;30.298;2022-12-18T05:25:14;1028.3;;;-5;65.7
57799;BME280;43626;53.866;30.298;2022-12-18T05:29:26;1028.3;;;-5;65.7
57799;BME280;43626;53.866;30.298;2022-12-18T05:35:02;1028.3;;;-5;65.5
57799;BME280;43626;53.866;30.298;2022-12-18T05:39:54;1028.3;;;-5.1;65.7
57799;BME280;43626;53.866;30.298;2022-12-18T05:44:38;1028.4;;;-5.1;65.6
57799;BME280;43626;53.866;30.298;2022-12-18T05:50:14;1028.5;;;-5;65.6
57799;BME280;43626;53.866;30.298;2022-12-18T05:55:02;1028.5;;;-5;65.6
57799;BME280;43626;53.866;30.298;2022-12-18T05:59:26;1028.6;;;-5;65.5
57799;BME280;43626;53.866;30.298;2022-12-18T06:04:50;1028.8;;;-5;65.6
57799;BME280;43626;53.866;30.298;2022-12-18T06:09:50;1028.9;;;-5.1;65.6
57799;BME280;43626;53.866;30.298;2022-12-18T06:15:12;1028.9;;;-5.1;65.9
57799;BME280;43626;53.866;30.298;2022-12-18T06:19:38;1028.9;;;-5.1;65.9
57799;BME280;43626;53.866;30.298;2022-12-18T06:25:02;1029;;;-5.1;66.2
57799;BME280;43626;53.866;30.298;2022-12-18T06:29:56;1029.1;;;-5.1;66.6
57799;BME280;43626;53.866;30.298;2022-12-18T06:34:52;1029.2;;;-5.1;66.9
57799;BME280;43626;53.866;30.298;2022-12-18T06:40:12;1029.5;;;-5.1;67.4
57799;BME280;43626;53.866;30.298;2022-12-18T06:44:52;1029.5;;;-5.1;67.4
57799;BME280;43626;53.866;30.298;2022-12-18T06:49:50;1029.6;;;-5.1;67.5
57799;BME280;43626;53.866;30.298;2022-12-18T06:54:50;1029.7;;;-5.1;67.5
57799;BME280;43626;53.866;30.298;2022-12-18T07:00:05;1029.9;;;-5.1;67.6
57799;BME280;43626;53.866;30.298;2022-12-18T07:05:14;1030.3;;;-5;67.7
57799;BME280;43626;53.866;30.298;2022-12-18T07:09:50;1030.3;;;-5;67.7
57799;BME280;43626;53.866;30.298;2022-12-18T07:15:03;1030.3;;;-5;67.8
57799;BME280;43626;53.866;30.298;2022-12-18T07:20:02;1030.3;;;-5;67.7
57799;BME280;43626;53.866;30.298;2022-12-18T07:24:52;1030.4;;;-5;67.7
57799;BME280;43626;53.866;30.298;2022-12-18T07:30:16;1030.6;;;-4.9;67.2
57799;BME280;43626;53.866;30.298;2022-12-18T07:35:16;1030.8;;;-5;67.1
57799;BME280;43626;53.866;30.298;2022-12-18T07:39:36;1030.8;;;-5;67.1
57799;BME280;43626;53.866;30.298;2022-12-18T07:45:05;1030.9;;;-4.9;67.1
57799;BME280;43626;53.866;30.298;2022-12-18T07:49:48;1031;;;-4.9;67
57799;BME280;43626;53.866;30.298;2022-12-18T07:55:16;1031.2;;;-4.9;66.7
57799;BME280;43626;53.866;30.298;2022-12-18T07:59:38;1031.2;;;-4.9;66.7
57799;BME280;43626;53.866;30.298;2022-12-18T08:05:14;1031.5;;;-4.8;66.4
57799;BME280;43626;53.866;30.298;2022-12-18T08:10:07;1031.5;;;-4.8;66.4
57799;BME280;43626;53.866;30.298;2022-12-18T08:14:26;1031.4;;;-4.9;66.3
57799;BME280;43626;53.866;30.298;2022-12-18T08:20:16;1031.6;;;-4.9;66
57799;BME280;43626;53.866;30.298;2022-12-18T08:25:00;1031.6;;;-4.9;66
57799;BME280;43626;53.866;30.298;2022-12-18T08:29:38;1031.7;;;-4.9;65.6
57799;BME280;43626;53.866;30.298;2022-12-18T08:34:26;1031.7;;;-4.9;65.7
57799;BME280;43626;53.866;30.298;2022-12-18T08:40:05;1031.9;;;-4.9;65.5
57799;BME280;43626;53.866;30.298;2022-12-18T08:45:16;1032.1;;;-4.9;65.4
57799;BME280;43626;53.866;30.298;2022-12-18T08:49:38;1032.1;;;-4.9;65.4
57799;BME280;43626;53.866;30.298;2022-12-18T08:54:48;1032.1;;;-5;65.4
57799;BME280;43626;53.866;30.298;2022-12-18T08:59:53;1032.2;;;-4.9;65.4
57799;BME280;43626;53.866;30.298;2022-12-18T09:04:38;1032.2;;;-4.9;65.2
57799;BME280;43626;53.866;30.298;2022-12-18T09:10:03;1032.4;;;-4.9;64.9
57799;BME280;43626;53.866;30.298;2022-12-18T09:15:03;1032.4;;;-4.9;65.1
57799;BME280;43626;53.866;30.298;2022-12-18T09:19:52;1032.4;;;-4.9;65.2
57799;BME280;43626;53.866;30.298;2022-12-18T09:24:38;1032.6;;;-4.8;65.1
57799;BME280;43626;53.866;30.298;2022-12-18T09:30:14;1032.8;;;-4.8;64.8
57799;BME280;43626;53.866;30.298;2022-12-18T09:35:16;1032.9;;;-4.9;64.8
57799;BME280;43626;53.866;30.298;2022-12-18T09:39:26;1032.9;;;-4.9;64.8
57799;BME280;43626;53.866;30.298;2022-12-18T09:44:38;1032.9;;;-5;65
57799;BME280;43626;53.866;30.298;2022-12-18T09:49:52;1033;;;-4.9;64.7
57799;BME280;43626;53.866;30.298;2022-12-18T09:54:29;1033.1;;;-4.8;64.4
57799;BME280;43626;53.866;30.298;2022-12-18T09:59:59;1033.2;;;-4.8;64.2
57799;BME280;43626;53.866;30.298;2022-12-18T10:05:02;1033.3;;;-4.8;63.9
57799;BME280;43626;53.866;30.298;2022-12-18T10:09:51;1033.3;;;-4.8;64.2
57799;BME280;43626;53.866;30.298;2022-12-18T10:14:27;1033.4;;;-4.6;64.2
57799;BME280;43626;53.866;30.298;2022-12-18T10:20:13;1033.5;;;-4.4;64
57799;BME280;43626;53.866;30.298;2022-12-18T10:25:15;1033.5;;;-4.2;63.7
57799;BME280;43626;53.866;30.298;2022-12-18T10:29:26;1033.5;;;-4.2;63.7
57799;BME280;43626;53.866;30.298;2022-12-18T10:34:36;1033.6;;;-4.1;63.1
57799;BME280;43626;53.866;30.298;2022-12-18T10:39:26;1033.7;;;-4.1;62.8
57799;BME280;43626;53.866;30.298;2022-12-18T10:44:26;1033.8;;;-4.2;62.7
57799;BME280;43626;53.866;30.298;2022-12-18T10:50:01;1033.9;;;-4.3;62.4
57799;BME280;43626;53.866;30.298;2022-12-18T10:54:59;1033.9;;;-4.4;62.3
57799;BME280;43626;53.866;30.298;2022-12-18T10:59:51;1034;;;-4.5;62.7
57799;BME280;43626;53.866;30.298;2022-12-18T11:04:49;1034.2;;;-4.5;62.6
57799;BME280;43626;53.866;30.298;2022-12-18T11:10:15;1034.3;;;-4.4;62.4
57799;BME280;43626;53.866;30.298;2022-12-18T11:15:15;1034.3;;;-4.5;62.7
57799;BME280;43626;53.866;30.298;2022-12-18T11:19:37;1034.3;;;-4.5;62.7
57799;BME280;43626;53.866;30.298;2022-12-18T11:24:52;1034.5;;;-4.4;62.4
57799;BME280;43626;53.866;30.298;2022-12-18T11:29:51;1034.5;;;-4.5;62.4
57799;BME280;43626;53.866;30.298;2022-12-18T11:34:27;1034.6;;;-4.5;62.4
57799;BME280;43626;53.866;30.298;2022-12-18T11:40:01;1034.6;;;-4.6;62.2
57799;BME280;43626;53.866;30.298;2022-12-18T11:45:03;1034.7;;;-4.6;61.8
57799;BME280;43626;53.866;30.298;2022-12-18T11:49:53;1034.8;;;-4.8;61.5
57799;BME280;43626;53.866;30.298;2022-12-18T11:54:51;1034.9;;;-5;61.4
57799;BME280;43626;53.866;30.298;2022-12-18T12:00:17;1035.1;;;-5.3;62
57799;BME280;43626;53.866;30.298;2022-12-18T12:05:06;1035.1;;;-5.3;62
57799;BME280;43626;53.866;30.298;2022-12-18T12:09:27;1035.1;;;-5.4;62.3
57799;BME280;43626;53.866;30.298;2022-12-18T12:14:52;1035.3;;;-5.3;62.3
57799;BME280;43626;53.866;30.298;2022-12-18T12:19:53;1035.4;;;-5.3;62.5
57799;BME280;43626;53.866;30.298;2022-12-18T12:24:42;1035.6;;;-5.2;62.2
57799;BME280;43626;53.866;30.298;2022-12-18T12:30:03;1035.6;;;-5.3;62.2
57799;BME280;43626;53.866;30.298;2022-12-18T12:35:06;1035.8;;;-5.4;62.2
57799;BME280;43626;53.866;30.298;2022-12-18T12:39:53;1035.9;;;-5.4;62.4
57799;BME280;43626;53.866;30.298;2022-12-18T12:44:49;1036;;;-5.5;61.8
57799;BME280;43626;53.866;30.298;2022-12-18T12:50:17;1036.2;;;-5.8;62.1
57799;BME280;43626;53.866;30.298;2022-12-18T12:55:17;1036.2;;;-5.9;62.4
57799;BME280;43626;53.866;30.298;2022-12-18T12:59:28;1036.2;;;-5.9;62.4
57799;BME280;43626;53.866;30.298;2022-12-18T13:04:39;1036.3;;;-5.9;62.3
57799;BME280;43626;53.866;30.298;2022-12-18T13:10:24;1036.4;;;-5.9;62.5
57799;BME280;43626;53.866;30.298;2022-12-18T13:14:28;1036.6;;;-6;62.6
57799;BME280;43626;53.866;30.298;2022-12-18T13:20:17;1036.7;;;-6.3;63
57799;BME280;43626;53.866;30.298;2022-12-18T13:25:31;1036.8;;;-6.3;63.3
57799;BME280;43626;53.866;30.298;2022-12-18T13:29:53;1036.8;;;-6.3;63.3
57799;BME280;43626;53.866;30.298;2022-12-18T13:34:39;1036.9;;;-6.3;63
57799;BME280;43626;53.866;30.298;2022-12-18T13:40:20;1037.1;;;-6.3;63.2
57799;BME280;43626;53.866;30.298;2022-12-18T13:45:25;1037.2;;;-6.2;62.8
57799;BME280;43626;53.866;30.298;2022-12-18T13:49:39;1037.3;;;-6.1;62.5
57799;BME280;43626;53.866;30.298;2022-12-18T13:54:50;1037.3;;;-6.3;62.2
57799;BME280;43626;53.866;30.298;2022-12-18T14:00:16;1037.4;;;-6.3;62.3
57799;BME280;43626;53.866;30.298;2022-12-18T14:04:39;1037.5;;;-6.3;61.8
57799;BME280;43626;53.866;30.298;2022-12-18T14:10:17;1037.7;;;-6.3;60.6
57799;BME280;43626;53.866;30.298;2022-12-18T14:15:17;1037.8;;;-6.5;60.4
57799;BME280;43626;53.866;30.298;2022-12-18T14:19:27;1037.8;;;-6.5;60.4
57799;BME280;43626;53.866;30.298;2022-12-18T14:25:13;1037.9;;;-6.7;60.2
57799;BME280;43626;53.866;30.298;2022-12-18T14:30:18;1038;;;-6.8;60.1
57799;BME280;43626;53.866;30.298;2022-12-18T14:35:12;1038.1;;;-7;60
57799;BME280;43626;53.866;30.298;2022-12-18T14:39:37;1038.2;;;-7.2;60.3
57799;BME280;43626;53.866;30.298;2022-12-18T14:44:50;1038.3;;;-7.3;60.5
57799;BME280;43626;53.866;30.298;2022-12-18T14:50:11;1038.3;;;-7.4;60.6
57799;BME280;43626;53.866;30.298;2022-12-18T14:54:39;1038.4;;;-7.4;60.7
57799;BME280;43626;53.866;30.298;2022-12-18T15:00:15;1038.5;;;-7.3;60.5
57799;BME280;43626;53.866;30.298;2022-12-18T15:05:19;1038.6;;;-7.5;59.8
57799;BME280;43626;53.866;30.298;2022-12-18T15:10:01;1038.6;;;-7.5;59.8
57799;BME280;43626;53.866;30.298;2022-12-18T15:14:31;1038.7;;;-7.6;59.7
57799;BME280;43626;53.866;30.298;2022-12-18T15:20:09;1038.7;;;-7.6;59.5
57799;BME280;43626;53.866;30.298;2022-12-18T15:25:21;1038.8;;;-7.6;59.3
57799;BME280;43626;53.866;30.298;2022-12-18T15:29:39;1038.9;;;-7.7;58.8
57799;BME280;43626;53.866;30.298;2022-12-18T15:34:49;1039;;;-7.7;59
57799;BME280;43626;53.866;30.298;2022-12-18T15:40:03;1039.1;;;-7.8;59.2
57799;BME280;43626;53.866;30.298;2022-12-18T15:44:39;1039.2;;;-7.8;59.2
57799;BME280;43626;53.866;30.298;2022-12-18T15:50:17;1039.3;;;-7.9;59
57799;BME280;43626;53.866;30.298;2022-12-18T15:55:17;1039.3;;;-7.9;59
57799;BME280;43626;53.866;30.298;2022-12-18T15:59:53;1039.3;;;-7.9;59
57799;BME280;43626;53.866;30.298;2022-12-18T16:04:27;1039.4;;;-8;58.6
57799;BME280;43626;53.866;30.298;2022-12-18T16:10:05;1039.5;;;-8.1;58.3
57799;BME280;43626;53.866;30.298;2022-12-18T16:15:07;1039.6;;;-8.2;58.5
57799;BME280;43626;53.866;30.298;2022-12-18T16:19:39;1039.8;;;-8.2;58
57799;BME280;43626;53.866;30.298;2022-12-18T16:24:27;1039.8;;;-8.3;58.2
57799;BME280;43626;53.866;30.298;2022-12-18T16:30:05;1039.9;;;-8.3;57.9
57799;BME280;43626;53.866;30.298;2022-12-18T16:34:27;1039.9;;;-8.4;58
57799;BME280;43626;53.866;30.298;2022-12-18T16:40:17;1040.2;;;-8.5;58.4
57799;BME280;43626;53.866;30.298;2022-12-18T16:45:17;1040.3;;;-8.6;58.3
57799;BME280;43626;53.866;30.298;2022-12-18T16:49:53;1040.3;;;-8.6;58.3
57799;BME280;43626;53.866;30.298;2022-12-18T16:54:39;1040.3;;;-8.7;58.4
57799;BME280;43626;53.866;30.298;2022-12-18T17:00:07;1040.5;;;-8.8;58.5
57799;BME280;43626;53.866;30.298;2022-12-18T17:05:05;1040.5;;;-8.8;58.4
57799;BME280;43626;53.866;30.298;2022-12-18T17:09:39;1040.5;;;-8.8;58.2
57799;BME280;43626;53.866;30.298;2022-12-18T17:14:41;1040.6;;;-8.7;58.1
57799;BME280;43626;53.866;30.298;2022-12-18T17:20:05;1040.7;;;-8.5;58.6
57799;BME280;43626;53.866;30.298;2022-12-18T17:24:37;1040.8;;;-8.4;59.3
57799;BME280;43626;53.866;30.298;2022-12-18T17:30:15;1040.8;;;-8.3;60.1
57799;BME280;43626;53.866;30.298;2022-12-18T17:35:17;1040.8;;;-8.3;60.2
57799;BME280;43626;53.866;30.298;2022-12-18T17:39:53;1040.8;;;-8.3;60.2
57799;BME280;43626;53.866;30.298;2022-12-18T17:44:27;1040.8;;;-8.2;60.3
57799;BME280;43626;53.866;30.298;2022-12-18T17:50:17;1041;;;-7.9;59.9
57799;BME280;43626;53.866;30.298;2022-12-18T17:55:15;1041;;;-7.8;59.3
57799;BME280;43626;53.866;30.298;2022-12-18T17:59:27;1041;;;-7.8;59.3
57799;BME280;43626;53.866;30.298;2022-12-18T18:05:05;1041;;;-7.8;59.1
57799;BME280;43626;53.866;30.298;2022-12-18T18:10:08;1041;;;-7.6;59.1
57799;BME280;43626;53.866;30.298;2022-12-18T18:15:15;1041.1;;;-7.4;58.7
57799;BME280;43626;53.866;30.298;2022-12-18T18:20:17;1041.2;;;-7.2;58.6
57799;BME280;43626;53.866;30.298;2022-12-18T18:24:49;1041.2;;;-7.2;58.6
57799;BME280;43626;53.866;30.298;2022-12-18T18:29:53;1041.2;;;-7.1;58.8
57799;BME280;43626;53.866;30.298;2022-12-18T18:34:49;1041.2;;;-7;58.9
57799;BME280;43626;53.866;30.298;2022-12-18T18:40:15;1041.3;;;-6.7;59
57799;BME280;43626;53.866;30.298;2022-12-18T18:45:13;1041.3;;;-6.6;58.8
57799;BME280;43626;53.866;30.298;2022-12-18T18:49:27;1041.3;;;-6.6;58.8
57799;BME280;43626;53.866;30.298;2022-12-18T18:55:17;1041.4;;;-6.4;58.6
57799;BME280;43626;53.866;30.298;2022-12-18T19:00:05;1041.4;;;-6.4;58.6
57799;BME280;43626;53.866;30.298;2022-12-18T19:04:51;1041.4;;;-6.4;58.6
57799;BME280;43626;53.866;30.298;2022-12-18T19:10:15;1041.3;;;-6.3;59.2
57799;BME280;43626;53.866;30.298;2022-12-18T19:14:39;1041.3;;;-6.3;59.2
57799;BME280;43626;53.866;30.298;2022-12-18T19:19:39;1041.3;;;-6.1;59.5
57799;BME280;43626;53.866;30.298;2022-12-18T19:24:27;1041.3;;;-6;59.5
57799;BME280;43626;53.866;30.298;2022-12-18T19:30:17;1041.5;;;-5.8;59.3
57799;BME280;43626;53.866;30.298;2022-12-18T19:35:17;1041.5;;;-5.8;59.3
57799;BME280;43626;53.866;30.298;2022-12-18T19:39:51;1041.5;;;-5.8;59.3
57799;BME280;43626;53.866;30.298;2022-12-18T19:45:07;1041.6;;;-5.8;59.4
57799;BME280;43626;53.866;30.298;2022-12-18T19:50:05;1041.7;;;-5.8;59.5
57799;BME280;43626;53.866;30.298;2022-12-18T19:55:15;1041.8;;;-5.8;59.7
57799;BME280;43626;53.866;30.298;2022-12-18T20:00:17;1041.9;;;-5.8;59.8
57799;BME280;43626;53.866;30.298;2022-12-18T20:05:01;1041.9;;;-5.8;59.8
57799;BME280;43626;53.866;30.298;2022-12-18T20:09:27;1042;;;-5.8;60
57799;BME280;43626;53.866;30.298;2022-12-18T20:14:27;1042;;;-5.7;60.2
57799;BME280;43626;53.866;30.298;2022-12-18T20:20:17;1042.1;;;-5.6;60.3
57799;BME280;43626;53.866;30.298;2022-12-18T20:25:15;1042.1;;;-5.5;60.4
57799;BME280;43626;53.866;30.298;2022-12-18T20:29:27;1042.1;;;-5.5;60.4
57799;BME280;43626;53.866;30.298;2022-12-18T20:34:29;1042;;;-5.4;60.5
57799;BME280;43626;53.866;30.298;2022-12-18T20:40:15;1042.1;;;-5.4;60.4
57799;BME280;43626;53.866;30.298;2022-12-18T20:45:15;1042.2;;;-5.5;60.4
57799;BME280;43626;53.866;30.298;2022-12-18T20:50:17;1042.2;;;-5.5;60.1
57799;BME280;43626;53.866;30.298;2022-12-18T20:54:51;1042.2;;;-5.5;60.1
57799;BME280;43626;53.866;30.298;2022-12-18T20:59:53;1042.1;;;-5.6;59.9
57799;BME280;43626;53.866;30.298;2022-12-18T21:04:39;1042.1;;;-5.7;60.1
57799;BME280;43626;53.866;30.298;2022-12-18T21:10:15;1042.3;;;-5.8;60
57799;BME280;43626;53.866;30.298;2022-12-18T21:15:15;1042.5;;;-5.8;60.2
57799;BME280;43626;53.866;30.298;2022-12-18T21:19:39;1042.5;;;-5.8;60.2
57799;BME280;43626;53.866;30.298;2022-12-18T21:25:05;1042.4;;;-5.8;60.4
57799;BME280;43626;53.866;30.298;2022-12-18T21:30:07;1042.4;;;-5.8;60.3
57799;BME280;43626;53.866;30.298;2022-12-18T21:35:15;1042.6;;;-5.7;60.4
57799;BME280;43626;53.866;30.298;2022-12-18T21:40:17;1042.7;;;-5.8;60.7
57799;BME280;43626;53.866;30.298;2022-12-18T21:44:49;1042.7;;;-5.8;60.7
57799;BME280;43626;53.866;30.298;2022-12-18T21:50:13;1042.7;;;-5.9;62.2
57799;BME280;43626;53.866;30.298;2022-12-18T21:54:37;1042.7;;;-5.9;62.2
57799;BME280;43626;53.866;30.298;2022-12-18T22:00:13;1042.5;;;-5.8;62.5
57799;BME280;43626;53.866;30.298;2022-12-18T22:05:13;1042.5;;;-5.8;62.3
57799;BME280;43626;53.866;30.298;2022-12-18T22:09:37;1042.5;;;-5.8;62.3
57799;BME280;43626;53.866;30.298;2022-12-18T22:15:13;1042.5;;;-5.8;61.9
57799;BME280;43626;53.866;30.298;2022-12-18T22:20:03;1042.5;;;-5.8;61.9
57799;BME280;43626;53.866;30.298;2022-12-18T22:25:09;1042.6;;;-6;62
57799;BME280;43626;53.866;30.298;2022-12-18T22:29:27;1042.6;;;-6.1;62.2
57799;BME280;43626;53.866;30.298;2022-12-18T22:34:45;1042.6;;;-6.1;62.1
57799;BME280;43626;53.866;30.298;2022-12-18T22:39:47;1042.7;;;-6.1;62.3
57799;BME280;43626;53.866;30.298;2022-12-18T22:44:37;1042.8;;;-6.2;62.6
57799;BME280;43626;53.866;30.298;2022-12-18T22:50:09;1042.9;;;-6.3;63.1
57799;BME280;43626;53.866;30.298;2022-12-18T22:54:45;1042.9;;;-6.3;63.1
57799;BME280;43626;53.866;30.298;2022-12-18T22:59:35;1042.8;;;-6.2;63.2
57799;BME280;43626;53.866;30.298;2022-12-18T23:04:59;1042.8;;;-6.2;63.2
57799;BME280;43626;53.866;30.298;2022-12-18T23:10:01;1042.7;;;-6.1;62.9
57799;BME280;43626;53.866;30.298;2022-12-18T23:15:11;1042.8;;;-6.3;63.1
57799;BME280;43626;53.866;30.298;2022-12-18T23:19:35;1042.8;;;-6.3;63.1
57799;BME280;43626;53.866;30.298;2022-12-18T23:24:37;1042.8;;;-6.3;63.2
57799;BME280;43626;53.866;30.298;2022-12-18T23:29:51;1043;;;-6.4;63.3
57799;BME280;43626;53.866;30.298;2022-12-18T23:34:35;1043;;;-6.4;63.4
57799;BME280;43626;53.866;30.298;2022-12-18T23:40:11;1043.3;;;-6.4;63.7
57799;BME280;43626;53.866;30.298;2022-12-18T23:44:57;1043.3;;;-6.4;63.7
57799;BME280;43626;53.866;30.298;2022-12-18T23:50:13;1043.4;;;-6.5;63.8
57799;BME280;43626;53.866;30.298;2022-12-18T23:54:49;1043.4;;;-6.5;63.8
